sensor_id;sensor_type;location;lat;lon;timestamp;P1;durP1;ratioP1;P2;durP2;ratioP2
20810;SDS011;10566;52.928;10.522;2022-12-07T00:01:52;73.57;;;28.07;;
20810;SDS011;10566;52.928;10.522;2022-12-07T00:04:18;72.03;;;28.30;;
20810;SDS011;10566;52.928;10.522;2022-12-07T00:06:45;75.43;;;28.20;;
20810;SDS011;10566;52.928;10.522;2022-12-07T00:09:12;78.10;;;29.00;;
20810;SDS011;10566;52.928;10.522;2022-12-07T00:11:38;75.07;;;28.97;;
20810;SDS011;10566;52.928;10.522;2022-12-07T00:14:06;73.57;;;28.67;;
20810;SDS011;10566;52.928;10.522;2022-12-07T00:16:33;78.00;;;28.50;;
20810;SDS011;10566;52.928;10.522;2022-12-07T00:18:59;76.67;;;27.80;;
20810;SDS011;10566;52.928;10.522;2022-12-07T00:21:26;75.10;;;27.97;;
20810;SDS011;10566;52.928;10.522;2022-12-07T00:23:53;76.60;;;28.17;;
20810;SDS011;10566;52.928;10.522;2022-12-07T00:26:21;73.00;;;27.70;;
20810;SDS011;10566;52.928;10.522;2022-12-07T00:28:48;79.03;;;28.33;;
20810;SDS011;10566;52.928;10.522;2022-12-07T00:31:14;80.57;;;28.60;;
20810;SDS011;10566;52.928;10.522;2022-12-07T00:33:40;77.30;;;27.97;;
20810;SDS011;10566;52.928;10.522;2022-12-07T00:36:08;72.50;;;27.57;;
20810;SDS011;10566;52.928;10.522;2022-12-07T00:38:35;70.60;;;27.53;;
20810;SDS011;10566;52.928;10.522;2022-12-07T00:41:02;77.43;;;28.37;;
20810;SDS011;10566;52.928;10.522;2022-12-07T00:43:29;71.27;;;27.30;;
20810;SDS011;10566;52.928;10.522;2022-12-07T00:45:55;76.97;;;27.37;;
20810;SDS011;10566;52.928;10.522;2022-12-07T00:48:21;76.13;;;28.60;;
20810;SDS011;10566;52.928;10.522;2022-12-07T00:50:47;72.87;;;27.77;;
20810;SDS011;10566;52.928;10.522;2022-12-07T00:53:13;71.37;;;28.50;;
20810;SDS011;10566;52.928;10.522;2022-12-07T00:55:39;72.60;;;28.70;;
20810;SDS011;10566;52.928;10.522;2022-12-07T00:58:05;74.37;;;29.33;;
20810;SDS011;10566;52.928;10.522;2022-12-07T01:00:31;67.60;;;28.77;;
20810;SDS011;10566;52.928;10.522;2022-12-07T01:02:58;76.27;;;29.67;;
20810;SDS011;10566;52.928;10.522;2022-12-07T01:05:24;72.03;;;29.13;;
20810;SDS011;10566;52.928;10.522;2022-12-07T01:07:50;78.17;;;29.47;;
20810;SDS011;10566;52.928;10.522;2022-12-07T01:10:16;74.23;;;30.27;;
20810;SDS011;10566;52.928;10.522;2022-12-07T01:12:42;79.53;;;30.93;;
20810;SDS011;10566;52.928;10.522;2022-12-07T01:15:08;75.23;;;30.03;;
20810;SDS011;10566;52.928;10.522;2022-12-07T01:17:34;75.03;;;29.73;;
20810;SDS011;10566;52.928;10.522;2022-12-07T01:20:00;75.27;;;29.03;;
20810;SDS011;10566;52.928;10.522;2022-12-07T01:22:26;71.67;;;29.33;;
20810;SDS011;10566;52.928;10.522;2022-12-07T01:24:52;74.93;;;28.03;;
20810;SDS011;10566;52.928;10.522;2022-12-07T01:27:18;69.97;;;28.50;;
20810;SDS011;10566;52.928;10.522;2022-12-07T01:29:44;66.70;;;26.57;;
20810;SDS011;10566;52.928;10.522;2022-12-07T01:32:10;68.97;;;27.73;;
20810;SDS011;10566;52.928;10.522;2022-12-07T01:34:37;69.23;;;28.60;;
20810;SDS011;10566;52.928;10.522;2022-12-07T01:37:02;65.23;;;27.23;;
20810;SDS011;10566;52.928;10.522;2022-12-07T01:39:29;64.83;;;28.07;;
20810;SDS011;10566;52.928;10.522;2022-12-07T01:41:54;65.50;;;27.03;;
20810;SDS011;10566;52.928;10.522;2022-12-07T01:44:25;62.13;;;26.57;;
20810;SDS011;10566;52.928;10.522;2022-12-07T01:46:55;66.30;;;27.30;;
20810;SDS011;10566;52.928;10.522;2022-12-07T01:49:23;63.57;;;26.80;;
20810;SDS011;10566;52.928;10.522;2022-12-07T01:51:51;60.07;;;26.53;;
20810;SDS011;10566;52.928;10.522;2022-12-07T01:54:18;66.07;;;26.57;;
20810;SDS011;10566;52.928;10.522;2022-12-07T01:56:48;61.90;;;26.13;;
20810;SDS011;10566;52.928;10.522;2022-12-07T01:59:15;58.47;;;25.63;;
20810;SDS011;10566;52.928;10.522;2022-12-07T02:01:41;57.40;;;24.83;;
20810;SDS011;10566;52.928;10.522;2022-12-07T02:04:07;57.97;;;25.20;;
20810;SDS011;10566;52.928;10.522;2022-12-07T02:06:34;56.90;;;23.70;;
20810;SDS011;10566;52.928;10.522;2022-12-07T02:09:01;48.90;;;22.70;;
20810;SDS011;10566;52.928;10.522;2022-12-07T02:11:27;49.60;;;22.93;;
20810;SDS011;10566;52.928;10.522;2022-12-07T02:13:53;47.47;;;22.00;;
20810;SDS011;10566;52.928;10.522;2022-12-07T02:18:59;44.53;;;21.20;;
20810;SDS011;10566;52.928;10.522;2022-12-07T02:29:28;42.07;;;19.47;;
20810;SDS011;10566;52.928;10.522;2022-12-07T02:32:11;41.30;;;17.70;;
20810;SDS011;10566;52.928;10.522;2022-12-07T02:37:32;36.93;;;17.33;;
20810;SDS011;10566;52.928;10.522;2022-12-07T02:40:05;38.30;;;16.37;;
20810;SDS011;10566;52.928;10.522;2022-12-07T02:42:37;38.13;;;16.57;;
20810;SDS011;10566;52.928;10.522;2022-12-07T02:45:06;39.87;;;16.93;;
20810;SDS011;10566;52.928;10.522;2022-12-07T02:47:32;36.90;;;16.57;;
20810;SDS011;10566;52.928;10.522;2022-12-07T02:49:59;33.67;;;16.13;;
20810;SDS011;10566;52.928;10.522;2022-12-07T02:52:27;35.23;;;15.40;;
20810;SDS011;10566;52.928;10.522;2022-12-07T02:54:53;35.37;;;16.23;;
20810;SDS011;10566;52.928;10.522;2022-12-07T03:09:46;31.67;;;14.07;;
20810;SDS011;10566;52.928;10.522;2022-12-07T03:12:17;32.20;;;13.90;;
20810;SDS011;10566;52.928;10.522;2022-12-07T03:14:46;29.23;;;12.97;;
20810;SDS011;10566;52.928;10.522;2022-12-07T03:17:15;28.13;;;12.93;;
20810;SDS011;10566;52.928;10.522;2022-12-07T03:19:42;25.50;;;12.50;;
20810;SDS011;10566;52.928;10.522;2022-12-07T03:22:10;28.30;;;12.63;;
20810;SDS011;10566;52.928;10.522;2022-12-07T03:24:39;25.70;;;12.40;;
20810;SDS011;10566;52.928;10.522;2022-12-07T03:27:07;24.73;;;12.03;;
20810;SDS011;10566;52.928;10.522;2022-12-07T03:29:38;25.23;;;11.83;;
20810;SDS011;10566;52.928;10.522;2022-12-07T03:32:10;23.50;;;12.00;;
20810;SDS011;10566;52.928;10.522;2022-12-07T03:34:44;23.70;;;11.83;;
20810;SDS011;10566;52.928;10.522;2022-12-07T03:37:18;26.07;;;11.63;;
20810;SDS011;10566;52.928;10.522;2022-12-07T03:39:56;21.67;;;10.60;;
20810;SDS011;10566;52.928;10.522;2022-12-07T03:42:24;23.27;;;10.60;;
20810;SDS011;10566;52.928;10.522;2022-12-07T03:44:50;23.57;;;10.33;;
20810;SDS011;10566;52.928;10.522;2022-12-07T03:49:53;20.53;;;10.40;;
20810;SDS011;10566;52.928;10.522;2022-12-07T03:54:57;22.33;;;10.80;;
20810;SDS011;10566;52.928;10.522;2022-12-07T03:57:25;24.23;;;11.03;;
20810;SDS011;10566;52.928;10.522;2022-12-07T03:59:53;21.27;;;9.80;;
20810;SDS011;10566;52.928;10.522;2022-12-07T04:02:20;21.43;;;10.00;;
20810;SDS011;10566;52.928;10.522;2022-12-07T04:04:46;18.90;;;9.93;;
20810;SDS011;10566;52.928;10.522;2022-12-07T04:07:12;24.10;;;10.23;;
20810;SDS011;10566;52.928;10.522;2022-12-07T04:09:38;23.30;;;10.10;;
20810;SDS011;10566;52.928;10.522;2022-12-07T04:12:04;23.10;;;9.67;;
20810;SDS011;10566;52.928;10.522;2022-12-07T04:14:30;22.83;;;9.50;;
20810;SDS011;10566;52.928;10.522;2022-12-07T04:16:56;17.93;;;8.83;;
20810;SDS011;10566;52.928;10.522;2022-12-07T04:19:24;19.00;;;8.57;;
20810;SDS011;10566;52.928;10.522;2022-12-07T04:21:50;22.60;;;8.37;;
20810;SDS011;10566;52.928;10.522;2022-12-07T04:24:16;18.27;;;8.57;;
20810;SDS011;10566;52.928;10.522;2022-12-07T04:26:43;20.53;;;8.50;;
20810;SDS011;10566;52.928;10.522;2022-12-07T04:29:09;18.00;;;7.77;;
20810;SDS011;10566;52.928;10.522;2022-12-07T04:31:35;19.20;;;8.60;;
20810;SDS011;10566;52.928;10.522;2022-12-07T04:34:02;17.83;;;8.23;;
20810;SDS011;10566;52.928;10.522;2022-12-07T04:36:28;21.43;;;8.60;;
20810;SDS011;10566;52.928;10.522;2022-12-07T04:38:54;20.77;;;8.43;;
20810;SDS011;10566;52.928;10.522;2022-12-07T04:41:21;21.90;;;9.17;;
20810;SDS011;10566;52.928;10.522;2022-12-07T04:44:00;17.43;;;8.17;;
20810;SDS011;10566;52.928;10.522;2022-12-07T04:46:26;18.60;;;8.13;;
20810;SDS011;10566;52.928;10.522;2022-12-07T04:48:52;16.83;;;7.30;;
20810;SDS011;10566;52.928;10.522;2022-12-07T04:51:23;18.37;;;7.30;;
20810;SDS011;10566;52.928;10.522;2022-12-07T04:53:49;14.43;;;6.90;;
20810;SDS011;10566;52.928;10.522;2022-12-07T04:56:15;19.17;;;8.27;;
20810;SDS011;10566;52.928;10.522;2022-12-07T04:58:42;17.77;;;6.77;;
20810;SDS011;10566;52.928;10.522;2022-12-07T05:01:08;14.87;;;7.03;;
20810;SDS011;10566;52.928;10.522;2022-12-07T05:03:35;16.63;;;6.70;;
20810;SDS011;10566;52.928;10.522;2022-12-07T05:06:01;16.03;;;6.13;;
20810;SDS011;10566;52.928;10.522;2022-12-07T05:08:27;14.53;;;7.00;;
20810;SDS011;10566;52.928;10.522;2022-12-07T05:10:53;17.93;;;6.63;;
20810;SDS011;10566;52.928;10.522;2022-12-07T05:13:19;13.10;;;6.00;;
20810;SDS011;10566;52.928;10.522;2022-12-07T05:15:48;16.23;;;6.60;;
20810;SDS011;10566;52.928;10.522;2022-12-07T05:18:15;14.40;;;5.60;;
20810;SDS011;10566;52.928;10.522;2022-12-07T05:20:41;13.37;;;6.33;;
20810;SDS011;10566;52.928;10.522;2022-12-07T05:23:07;17.10;;;6.50;;
20810;SDS011;10566;52.928;10.522;2022-12-07T05:25:33;16.97;;;6.20;;
20810;SDS011;10566;52.928;10.522;2022-12-07T05:27:59;13.93;;;5.90;;
20810;SDS011;10566;52.928;10.522;2022-12-07T05:30:26;14.87;;;5.67;;
20810;SDS011;10566;52.928;10.522;2022-12-07T05:32:52;12.20;;;5.53;;
20810;SDS011;10566;52.928;10.522;2022-12-07T05:35:18;11.83;;;5.40;;
20810;SDS011;10566;52.928;10.522;2022-12-07T05:37:44;14.33;;;6.03;;
20810;SDS011;10566;52.928;10.522;2022-12-07T05:40:10;15.07;;;5.97;;
20810;SDS011;10566;52.928;10.522;2022-12-07T05:42:37;16.50;;;6.40;;
20810;SDS011;10566;52.928;10.522;2022-12-07T05:45:03;16.13;;;5.70;;
20810;SDS011;10566;52.928;10.522;2022-12-07T05:47:29;15.40;;;5.73;;
20810;SDS011;10566;52.928;10.522;2022-12-07T05:49:55;12.00;;;4.83;;
20810;SDS011;10566;52.928;10.522;2022-12-07T05:52:21;14.37;;;5.17;;
20810;SDS011;10566;52.928;10.522;2022-12-07T05:54:47;12.97;;;5.60;;
20810;SDS011;10566;52.928;10.522;2022-12-07T05:57:13;17.80;;;5.93;;
20810;SDS011;10566;52.928;10.522;2022-12-07T05:59:39;11.70;;;5.23;;
20810;SDS011;10566;52.928;10.522;2022-12-07T06:02:06;11.33;;;5.67;;
20810;SDS011;10566;52.928;10.522;2022-12-07T06:04:33;13.63;;;5.10;;
20810;SDS011;10566;52.928;10.522;2022-12-07T06:06:59;12.50;;;5.20;;
20810;SDS011;10566;52.928;10.522;2022-12-07T06:09:26;12.57;;;5.37;;
20810;SDS011;10566;52.928;10.522;2022-12-07T06:11:52;13.80;;;4.97;;
20810;SDS011;10566;52.928;10.522;2022-12-07T06:14:37;18.00;;;5.27;;
20810;SDS011;10566;52.928;10.522;2022-12-07T06:17:03;12.40;;;4.83;;
20810;SDS011;10566;52.928;10.522;2022-12-07T06:19:29;18.57;;;5.43;;
20810;SDS011;10566;52.928;10.522;2022-12-07T06:21:55;16.47;;;5.63;;
20810;SDS011;10566;52.928;10.522;2022-12-07T06:24:21;13.27;;;5.63;;
20810;SDS011;10566;52.928;10.522;2022-12-07T06:26:47;15.20;;;6.20;;
20810;SDS011;10566;52.928;10.522;2022-12-07T06:29:14;16.43;;;6.20;;
20810;SDS011;10566;52.928;10.522;2022-12-07T06:31:40;21.00;;;6.73;;
20810;SDS011;10566;52.928;10.522;2022-12-07T06:34:08;16.63;;;6.90;;
20810;SDS011;10566;52.928;10.522;2022-12-07T06:36:34;20.83;;;6.90;;
20810;SDS011;10566;52.928;10.522;2022-12-07T06:39:00;15.87;;;7.77;;
20810;SDS011;10566;52.928;10.522;2022-12-07T06:41:26;18.83;;;7.20;;
20810;SDS011;10566;52.928;10.522;2022-12-07T06:43:52;17.80;;;7.40;;
20810;SDS011;10566;52.928;10.522;2022-12-07T06:46:18;21.80;;;7.00;;
20810;SDS011;10566;52.928;10.522;2022-12-07T06:48:44;17.13;;;7.50;;
20810;SDS011;10566;52.928;10.522;2022-12-07T06:51:10;19.83;;;8.07;;
20810;SDS011;10566;52.928;10.522;2022-12-07T06:53:37;22.93;;;7.80;;
20810;SDS011;10566;52.928;10.522;2022-12-07T06:56:03;19.33;;;8.03;;
20810;SDS011;10566;52.928;10.522;2022-12-07T06:58:30;19.07;;;8.20;;
20810;SDS011;10566;52.928;10.522;2022-12-07T07:00:56;19.97;;;8.37;;
20810;SDS011;10566;52.928;10.522;2022-12-07T07:03:22;16.93;;;7.63;;
20810;SDS011;10566;52.928;10.522;2022-12-07T07:05:48;19.43;;;7.83;;
20810;SDS011;10566;52.928;10.522;2022-12-07T07:08:14;19.80;;;8.13;;
20810;SDS011;10566;52.928;10.522;2022-12-07T07:10:40;22.40;;;8.17;;
20810;SDS011;10566;52.928;10.522;2022-12-07T07:13:07;19.17;;;7.80;;
20810;SDS011;10566;52.928;10.522;2022-12-07T07:15:33;20.83;;;7.63;;
20810;SDS011;10566;52.928;10.522;2022-12-07T07:17:59;19.17;;;7.53;;
20810;SDS011;10566;52.928;10.522;2022-12-07T07:20:26;17.33;;;7.23;;
20810;SDS011;10566;52.928;10.522;2022-12-07T07:22:55;21.97;;;7.93;;
20810;SDS011;10566;52.928;10.522;2022-12-07T07:25:21;19.60;;;7.17;;
20810;SDS011;10566;52.928;10.522;2022-12-07T07:27:47;18.77;;;7.00;;
20810;SDS011;10566;52.928;10.522;2022-12-07T07:30:13;15.37;;;6.53;;
20810;SDS011;10566;52.928;10.522;2022-12-07T07:32:39;18.47;;;6.77;;
20810;SDS011;10566;52.928;10.522;2022-12-07T07:35:05;17.87;;;6.60;;
20810;SDS011;10566;52.928;10.522;2022-12-07T07:37:31;17.10;;;6.67;;
20810;SDS011;10566;52.928;10.522;2022-12-07T07:39:57;14.07;;;6.00;;
20810;SDS011;10566;52.928;10.522;2022-12-07T07:42:23;16.20;;;6.70;;
20810;SDS011;10566;52.928;10.522;2022-12-07T07:44:49;16.93;;;6.57;;
20810;SDS011;10566;52.928;10.522;2022-12-07T07:47:15;16.63;;;6.90;;
20810;SDS011;10566;52.928;10.522;2022-12-07T07:49:41;17.77;;;7.50;;
20810;SDS011;10566;52.928;10.522;2022-12-07T07:52:07;17.80;;;7.13;;
20810;SDS011;10566;52.928;10.522;2022-12-07T07:54:33;17.73;;;7.23;;
20810;SDS011;10566;52.928;10.522;2022-12-07T07:56:58;18.47;;;7.13;;
20810;SDS011;10566;52.928;10.522;2022-12-07T07:59:24;22.10;;;9.00;;
20810;SDS011;10566;52.928;10.522;2022-12-07T08:01:50;19.97;;;7.57;;
20810;SDS011;10566;52.928;10.522;2022-12-07T08:04:16;18.47;;;8.37;;
20810;SDS011;10566;52.928;10.522;2022-12-07T08:06:42;18.53;;;8.50;;
20810;SDS011;10566;52.928;10.522;2022-12-07T08:09:08;19.70;;;8.57;;
20810;SDS011;10566;52.928;10.522;2022-12-07T08:11:35;19.57;;;7.90;;
20810;SDS011;10566;52.928;10.522;2022-12-07T08:14:01;15.90;;;8.50;;
20810;SDS011;10566;52.928;10.522;2022-12-07T08:16:27;18.57;;;8.53;;
20810;SDS011;10566;52.928;10.522;2022-12-07T08:18:53;18.17;;;8.70;;
20810;SDS011;10566;52.928;10.522;2022-12-07T08:21:19;18.23;;;8.67;;
20810;SDS011;10566;52.928;10.522;2022-12-07T08:23:45;25.33;;;8.93;;
20810;SDS011;10566;52.928;10.522;2022-12-07T08:26:13;19.70;;;9.20;;
20810;SDS011;10566;52.928;10.522;2022-12-07T08:28:39;19.37;;;8.27;;
20810;SDS011;10566;52.928;10.522;2022-12-07T08:31:06;17.97;;;8.80;;
20810;SDS011;10566;52.928;10.522;2022-12-07T08:33:33;20.17;;;8.50;;
20810;SDS011;10566;52.928;10.522;2022-12-07T08:36:06;17.43;;;8.33;;
20810;SDS011;10566;52.928;10.522;2022-12-07T08:38:34;20.70;;;8.33;;
20810;SDS011;10566;52.928;10.522;2022-12-07T08:41:00;17.47;;;8.60;;
20810;SDS011;10566;52.928;10.522;2022-12-07T08:43:26;16.90;;;8.10;;
20810;SDS011;10566;52.928;10.522;2022-12-07T08:46:03;17.13;;;8.37;;
20810;SDS011;10566;52.928;10.522;2022-12-07T08:48:31;15.43;;;7.40;;
20810;SDS011;10566;52.928;10.522;2022-12-07T08:50:57;17.53;;;7.43;;
20810;SDS011;10566;52.928;10.522;2022-12-07T08:53:23;14.00;;;7.57;;
20810;SDS011;10566;52.928;10.522;2022-12-07T08:55:50;12.83;;;6.67;;
20810;SDS011;10566;52.928;10.522;2022-12-07T08:58:16;15.10;;;6.90;;
20810;SDS011;10566;52.928;10.522;2022-12-07T09:00:42;16.60;;;7.30;;
20810;SDS011;10566;52.928;10.522;2022-12-07T09:03:08;13.73;;;6.97;;
20810;SDS011;10566;52.928;10.522;2022-12-07T09:05:34;17.57;;;7.43;;
20810;SDS011;10566;52.928;10.522;2022-12-07T09:08:00;15.20;;;6.60;;
20810;SDS011;10566;52.928;10.522;2022-12-07T09:10:27;15.27;;;7.23;;
20810;SDS011;10566;52.928;10.522;2022-12-07T09:12:53;15.73;;;7.50;;
20810;SDS011;10566;52.928;10.522;2022-12-07T09:15:19;13.07;;;7.30;;
20810;SDS011;10566;52.928;10.522;2022-12-07T09:17:45;14.37;;;7.37;;
20810;SDS011;10566;52.928;10.522;2022-12-07T09:20:11;16.13;;;7.70;;
20810;SDS011;10566;52.928;10.522;2022-12-07T09:22:37;14.37;;;7.43;;
20810;SDS011;10566;52.928;10.522;2022-12-07T09:25:04;17.00;;;7.70;;
20810;SDS011;10566;52.928;10.522;2022-12-07T09:27:30;19.23;;;7.40;;
20810;SDS011;10566;52.928;10.522;2022-12-07T09:29:56;11.93;;;7.43;;
20810;SDS011;10566;52.928;10.522;2022-12-07T09:32:22;16.17;;;7.43;;
20810;SDS011;10566;52.928;10.522;2022-12-07T09:34:48;14.40;;;7.50;;
20810;SDS011;10566;52.928;10.522;2022-12-07T09:37:14;14.43;;;6.87;;
20810;SDS011;10566;52.928;10.522;2022-12-07T09:39:40;12.20;;;6.63;;
20810;SDS011;10566;52.928;10.522;2022-12-07T09:42:07;15.77;;;7.60;;
20810;SDS011;10566;52.928;10.522;2022-12-07T09:44:33;18.63;;;8.57;;
20810;SDS011;10566;52.928;10.522;2022-12-07T09:47:00;15.17;;;7.57;;
20810;SDS011;10566;52.928;10.522;2022-12-07T09:49:28;14.97;;;7.23;;
20810;SDS011;10566;52.928;10.522;2022-12-07T09:54:26;16.83;;;7.27;;
20810;SDS011;10566;52.928;10.522;2022-12-07T09:56:52;18.57;;;7.93;;
20810;SDS011;10566;52.928;10.522;2022-12-07T09:59:18;15.23;;;7.33;;
20810;SDS011;10566;52.928;10.522;2022-12-07T10:01:46;17.30;;;7.37;;
20810;SDS011;10566;52.928;10.522;2022-12-07T10:04:20;13.83;;;7.30;;
20810;SDS011;10566;52.928;10.522;2022-12-07T10:06:46;21.73;;;8.73;;
20810;SDS011;10566;52.928;10.522;2022-12-07T10:09:14;12.23;;;7.00;;
20810;SDS011;10566;52.928;10.522;2022-12-07T10:14:25;17.10;;;7.10;;
20810;SDS011;10566;52.928;10.522;2022-12-07T10:16:52;15.73;;;6.67;;
20810;SDS011;10566;52.928;10.522;2022-12-07T10:19:26;10.50;;;5.73;;
20810;SDS011;10566;52.928;10.522;2022-12-07T10:22:03;12.67;;;6.13;;
20810;SDS011;10566;52.928;10.522;2022-12-07T10:24:29;10.50;;;6.03;;
20810;SDS011;10566;52.928;10.522;2022-12-07T10:26:55;10.37;;;5.83;;
20810;SDS011;10566;52.928;10.522;2022-12-07T10:29:32;16.50;;;6.50;;
20810;SDS011;10566;52.928;10.522;2022-12-07T10:32:03;14.63;;;6.23;;
20810;SDS011;10566;52.928;10.522;2022-12-07T10:34:30;12.67;;;6.07;;
20810;SDS011;10566;52.928;10.522;2022-12-07T10:39:49;10.63;;;5.67;;
20810;SDS011;10566;52.928;10.522;2022-12-07T10:42:19;13.67;;;5.70;;
20810;SDS011;10566;52.928;10.522;2022-12-07T10:44:45;10.30;;;5.67;;
20810;SDS011;10566;52.928;10.522;2022-12-07T10:49:48;13.93;;;5.87;;
20810;SDS011;10566;52.928;10.522;2022-12-07T10:52:35;13.63;;;5.57;;
20810;SDS011;10566;52.928;10.522;2022-12-07T10:55:15;12.63;;;5.23;;
20810;SDS011;10566;52.928;10.522;2022-12-07T11:00:23;13.37;;;5.63;;
20810;SDS011;10566;52.928;10.522;2022-12-07T11:05:17;8.87;;;4.40;;
20810;SDS011;10566;52.928;10.522;2022-12-07T11:08:00;13.00;;;4.33;;
20810;SDS011;10566;52.928;10.522;2022-12-07T11:18:43;11.33;;;4.87;;
20810;SDS011;10566;52.928;10.522;2022-12-07T11:21:16;11.43;;;3.80;;
20810;SDS011;10566;52.928;10.522;2022-12-07T11:26:37;10.20;;;3.70;;
20810;SDS011;10566;52.928;10.522;2022-12-07T11:32:03;10.80;;;4.07;;
20810;SDS011;10566;52.928;10.522;2022-12-07T11:37:03;8.90;;;3.10;;
20810;SDS011;10566;52.928;10.522;2022-12-07T11:39:39;11.57;;;3.40;;
20810;SDS011;10566;52.928;10.522;2022-12-07T11:42:12;9.20;;;3.23;;
20810;SDS011;10566;52.928;10.522;2022-12-07T11:44:45;7.93;;;3.00;;
20810;SDS011;10566;52.928;10.522;2022-12-07T11:47:17;10.97;;;3.20;;
20810;SDS011;10566;52.928;10.522;2022-12-07T11:50:05;7.47;;;2.63;;
20810;SDS011;10566;52.928;10.522;2022-12-07T11:52:40;12.30;;;2.90;;
20810;SDS011;10566;52.928;10.522;2022-12-07T11:55:14;8.97;;;3.10;;
20810;SDS011;10566;52.928;10.522;2022-12-07T11:57:43;9.90;;;3.00;;
20810;SDS011;10566;52.928;10.522;2022-12-07T12:00:14;8.27;;;2.53;;
20810;SDS011;10566;52.928;10.522;2022-12-07T12:03:24;9.70;;;2.73;;
20810;SDS011;10566;52.928;10.522;2022-12-07T12:05:30;7.10;;;2.50;;
20810;SDS011;10566;52.928;10.522;2022-12-07T12:08:05;11.77;;;3.03;;
20810;SDS011;10566;52.928;10.522;2022-12-07T12:10:40;8.33;;;2.40;;
20810;SDS011;10566;52.928;10.522;2022-12-07T12:21:04;8.30;;;2.70;;
20810;SDS011;10566;52.928;10.522;2022-12-07T12:23:45;9.80;;;2.73;;
20810;SDS011;10566;52.928;10.522;2022-12-07T12:26:23;12.53;;;4.40;;
20810;SDS011;10566;52.928;10.522;2022-12-07T12:28:56;9.40;;;2.70;;
20810;SDS011;10566;52.928;10.522;2022-12-07T12:34:00;8.27;;;2.33;;
20810;SDS011;10566;52.928;10.522;2022-12-07T12:36:28;12.23;;;2.40;;
20810;SDS011;10566;52.928;10.522;2022-12-07T12:39:10;8.23;;;2.20;;
20810;SDS011;10566;52.928;10.522;2022-12-07T12:51:47;5.70;;;1.77;;
20810;SDS011;10566;52.928;10.522;2022-12-07T12:54:26;5.90;;;2.27;;
20810;SDS011;10566;52.928;10.522;2022-12-07T12:57:00;6.97;;;2.10;;
20810;SDS011;10566;52.928;10.522;2022-12-07T12:59:29;11.43;;;2.30;;
20810;SDS011;10566;52.928;10.522;2022-12-07T13:04:55;12.57;;;2.40;;
20810;SDS011;10566;52.928;10.522;2022-12-07T13:10:20;7.27;;;2.27;;
20810;SDS011;10566;52.928;10.522;2022-12-07T13:15:39;5.40;;;1.63;;
20810;SDS011;10566;52.928;10.522;2022-12-07T13:28:38;6.57;;;2.30;;
20810;SDS011;10566;52.928;10.522;2022-12-07T13:31:11;6.10;;;2.50;;
20810;SDS011;10566;52.928;10.522;2022-12-07T13:33:38;6.17;;;2.80;;
20810;SDS011;10566;52.928;10.522;2022-12-07T13:36:04;5.50;;;2.53;;
20810;SDS011;10566;52.928;10.522;2022-12-07T13:38:36;7.67;;;2.90;;
20810;SDS011;10566;52.928;10.522;2022-12-07T13:41:12;7.63;;;2.70;;
20810;SDS011;10566;52.928;10.522;2022-12-07T13:46:11;5.83;;;2.87;;
20810;SDS011;10566;52.928;10.522;2022-12-07T13:48:51;8.53;;;3.30;;
20810;SDS011;10566;52.928;10.522;2022-12-07T13:51:18;7.80;;;3.90;;
20810;SDS011;10566;52.928;10.522;2022-12-07T13:53:49;6.70;;;3.70;;
20810;SDS011;10566;52.928;10.522;2022-12-07T13:56:15;11.00;;;4.20;;
20810;SDS011;10566;52.928;10.522;2022-12-07T13:58:41;8.90;;;4.00;;
20810;SDS011;10566;52.928;10.522;2022-12-07T14:01:07;7.37;;;4.30;;
20810;SDS011;10566;52.928;10.522;2022-12-07T14:03:34;9.03;;;4.70;;
20810;SDS011;10566;52.928;10.522;2022-12-07T14:08:36;11.70;;;5.77;;
20810;SDS011;10566;52.928;10.522;2022-12-07T14:11:02;14.23;;;6.80;;
20810;SDS011;10566;52.928;10.522;2022-12-07T14:15:59;9.97;;;5.63;;
20810;SDS011;10566;52.928;10.522;2022-12-07T14:18:36;17.00;;;8.10;;
20810;SDS011;10566;52.928;10.522;2022-12-07T14:21:03;12.30;;;6.17;;
20810;SDS011;10566;52.928;10.522;2022-12-07T14:23:30;13.70;;;5.57;;
20810;SDS011;10566;52.928;10.522;2022-12-07T14:26:04;13.93;;;5.10;;
20810;SDS011;10566;52.928;10.522;2022-12-07T14:28:31;9.40;;;5.10;;
20810;SDS011;10566;52.928;10.522;2022-12-07T14:30:58;8.93;;;5.13;;
20810;SDS011;10566;52.928;10.522;2022-12-07T14:33:24;10.07;;;5.43;;
20810;SDS011;10566;52.928;10.522;2022-12-07T14:35:50;10.23;;;5.50;;
20810;SDS011;10566;52.928;10.522;2022-12-07T14:38:21;11.63;;;4.60;;
20810;SDS011;10566;52.928;10.522;2022-12-07T14:40:47;12.00;;;5.30;;
20810;SDS011;10566;52.928;10.522;2022-12-07T14:43:14;12.73;;;5.40;;
20810;SDS011;10566;52.928;10.522;2022-12-07T14:45:41;11.53;;;5.57;;
20810;SDS011;10566;52.928;10.522;2022-12-07T14:48:07;10.30;;;5.80;;
20810;SDS011;10566;52.928;10.522;2022-12-07T14:50:37;11.83;;;5.80;;
20810;SDS011;10566;52.928;10.522;2022-12-07T14:53:09;14.87;;;5.73;;
20810;SDS011;10566;52.928;10.522;2022-12-07T14:55:37;12.30;;;5.80;;
20810;SDS011;10566;52.928;10.522;2022-12-07T14:58:02;13.60;;;6.27;;
20810;SDS011;10566;52.928;10.522;2022-12-07T15:00:29;12.40;;;5.40;;
20810;SDS011;10566;52.928;10.522;2022-12-07T15:02:55;10.47;;;5.43;;
20810;SDS011;10566;52.928;10.522;2022-12-07T15:05:21;13.07;;;5.37;;
20810;SDS011;10566;52.928;10.522;2022-12-07T15:07:48;10.73;;;5.53;;
20810;SDS011;10566;52.928;10.522;2022-12-07T15:10:16;10.33;;;5.37;;
20810;SDS011;10566;52.928;10.522;2022-12-07T15:12:43;10.47;;;5.30;;
20810;SDS011;10566;52.928;10.522;2022-12-07T15:15:09;11.53;;;4.83;;
20810;SDS011;10566;52.928;10.522;2022-12-07T15:17:35;10.57;;;4.93;;
20810;SDS011;10566;52.928;10.522;2022-12-07T15:20:01;11.63;;;4.60;;
20810;SDS011;10566;52.928;10.522;2022-12-07T15:22:28;15.87;;;7.33;;
20810;SDS011;10566;52.928;10.522;2022-12-07T15:24:56;12.27;;;6.10;;
20810;SDS011;10566;52.928;10.522;2022-12-07T15:27:22;10.83;;;4.70;;
20810;SDS011;10566;52.928;10.522;2022-12-07T15:29:51;10.93;;;4.20;;
20810;SDS011;10566;52.928;10.522;2022-12-07T15:32:18;8.97;;;3.87;;
20810;SDS011;10566;52.928;10.522;2022-12-07T15:34:44;8.50;;;4.27;;
20810;SDS011;10566;52.928;10.522;2022-12-07T15:37:10;10.60;;;3.60;;
20810;SDS011;10566;52.928;10.522;2022-12-07T15:39:36;12.13;;;3.90;;
20810;SDS011;10566;52.928;10.522;2022-12-07T15:42:02;10.20;;;4.60;;
20810;SDS011;10566;52.928;10.522;2022-12-07T15:44:28;11.83;;;4.90;;
20810;SDS011;10566;52.928;10.522;2022-12-07T15:47:13;9.47;;;4.50;;
20810;SDS011;10566;52.928;10.522;2022-12-07T15:49:39;10.07;;;4.83;;
20810;SDS011;10566;52.928;10.522;2022-12-07T15:52:05;9.13;;;4.00;;
20810;SDS011;10566;52.928;10.522;2022-12-07T15:54:31;10.27;;;4.00;;
20810;SDS011;10566;52.928;10.522;2022-12-07T15:56:57;9.77;;;4.10;;
20810;SDS011;10566;52.928;10.522;2022-12-07T15:59:23;12.27;;;5.80;;
20810;SDS011;10566;52.928;10.522;2022-12-07T16:01:49;15.80;;;5.87;;
20810;SDS011;10566;52.928;10.522;2022-12-07T16:04:15;13.43;;;4.70;;
20810;SDS011;10566;52.928;10.522;2022-12-07T16:06:41;10.57;;;5.03;;
20810;SDS011;10566;52.928;10.522;2022-12-07T16:09:07;10.47;;;4.60;;
20810;SDS011;10566;52.928;10.522;2022-12-07T16:11:33;11.90;;;5.37;;
20810;SDS011;10566;52.928;10.522;2022-12-07T16:13:59;12.53;;;6.20;;
20810;SDS011;10566;52.928;10.522;2022-12-07T16:16:25;14.00;;;6.27;;